航空気象通報

ウインドサーファーのための航空気象通報による風予報です。

12/29-12/30の航空気象通報(国内、海外)

2010年12月29日 23時03分12秒 | TAF
羽田空港
TAF RJTT 290839Z 2909/3012 34012KT 9999 FEW030
BECMG 3003/3006 18012KT
BECMG 3009/3012 04006KT
TEMPO 3009/3012 4000 RA BR
日本時間29日21時-30日12時:340度から12ノットの風
12-15時:風が変化
15-18時:180度から12ノットの風
18-21時:風が変化
21時:040度から6ノットの風

但し、30日18-21時の間:一時、

富士山静岡空港
TAF RJNS 290842Z 2909/3012 27015KT 9999 FEW030
BECMG 3003/3006 01006KT
TEMPO 3006/3012 4000 RA BR FEW006 BKN009
日本時間29日18時-30日12時:270度から15ノットの風
12-15時:風が変化
15-21時:010度から6ノットの風

但し、30日15-21時の間:一時、

那覇空港
TAF ROAH 270845Z 2709/2812 35007KT 9999 FEW030
日本時間27日18時-28日21時:350度から7ノットの風


マウイのカフルイ空港
TAF PHOG 291134Z 2912/3012 18004KT P6SM BKN200
FM292000 35012KT P6SM FEW025 SCT050
FM300400 VRB04KT P6SM FEW030 SCT050
FM300800 14005KT P6SM SCT250
ハワイ時間29日02-10時:180度から4ノットの風

10-18時:350度から12ノットの風
18-22時:風向不定4ノットの風
22時-30日02時:140度から5ノットの風


サイパン空港
TAF PGSN 291134Z 2912/3012 09010KT P6SM VCSH SCT022 SCT110
マリアナ時間29日22時-30日22時:090度から10ノットの風

コメント
この記事をはてなブックマークに追加

12/28-12/29の航空気象通報(国内、海外)

2010年12月28日 23時05分44秒 | TAF
羽田空港
TAF AMD RJTT 281241Z 2812/2912 33010KT 9999 SCT015
日本時間28日21時-29日21時:330度から10ノットの風


富士山静岡空港
TAF RJNS 280843Z 2809/2912 26016KT 9999 FEW020 SCT040
TEMPO 2809/2812 -TSRA BKN009 BKN020 FEW020CB
BECMG 2810/2812 27022G34KT
日本時間28日18-19時:260度から16ノットの風
19-21時:風が変化
21時-29日21時:270度から22ノット、突風34ノット

但し、28日18-21時の間:一時、

那覇空港
TAF ROAH 270845Z 2709/2812 35007KT 9999 FEW030
日本時間27日18時-28日21時:350度から7ノットの風


マウイのカフルイ空港
TAF PHOG 281131Z 2812/2912 12004KT P6SM SCT040 SCT070 BKN150
FM282000 03010KT P6SM FEW025 SCT060 BKN200
FM290600 10004KT P6SM FEW035 SCT060
ハワイ時間28日02-10時:120度から4ノットの風
10-20時:030度から10ノットの風

20時-29日02時:100度から4ノットの風


サイパン空港
TAF PGSN 281120Z 2812/2912 06011KT P6SM VCSH FEW018 SCT110
マリアナ時間28日22時-29日22時:060度から11ノットの風

コメント
この記事をはてなブックマークに追加

12/27-12/28の航空気象通報(国内、海外)

2010年12月27日 23時46分49秒 | TAF
羽田空港
TAF RJTT 270839Z 2709/2812 22008KT 9999 FEW030
BECMG 2709/2711 32006KT
BECMG 2800/2803 20018KT
TEMPO 2800/2809 20025G35KT
日本時間27日18時:220度から8ノットの風
18-20時:風が変化
20時-28日09時:320度から6ノットの風
09-12時:風が変化
12-21時:200度から18ノットの風
但し、28日09-18時の間:一時、200度から25ノット、突風35ノット


富士山静岡空港
TAF RJNS 270841Z 2709/2812 27014KT 9999 FEW030
TEMPO 2709/2711 27015G25KT
TEMPO 2809/2812 28022G34KT
日本時間27日18時-28日21時:270度から14ノットの風
但し、一時、27日18-20時:270度から15ノット、突風25ノット
但し、一時、28日18-21時:280度から22ノット、突風34ノット


那覇空港
TAF ROAH 270845Z 2709/2812 35007KT 9999 FEW030
日本時間27日18時-28日21時:350度から7ノットの風


マウイのカフルイ空港
TAF PHOG 271120Z 2712/2812 15008KT P6SM SCT050 BKN250
ハワイ時間27日02時-28日02時:150度から8ノットの風


サイパン空港
TAF PGSN 271125Z 2712/2812 05005KT P6SM VCSH SCT020 SCT050
TEMPO 2712/2715 VRB05KT -RA BKN018CB
マリアナ時間27日22時-28日22時:050度から5ノットの風
但し、27日22時-28日01時の間:一時、風向不定5ノットの風

但し、27日22時-28日01時の間:一時、
コメント
この記事をはてなブックマークに追加

12/26-12/27の航空気象通報(国内、海外)

2010年12月26日 23時36分49秒 | TAF
羽田空港
TAF RJTT 260842Z 2609/2712 23018KT 9999 FEW030
BECMG 2614/2616 25012KT
BECMG 2700/2703 17005KT
BECMG 2709/2712 25007KT
日本時間26日18-23時:230度から18ノットの風
23時-27日01時:風が変化
01-09時:250度から12ノットの風
09-12時:風が変化
12-18時:170度から5ノットの風
18-21時:風が変化
21時:250度から7ノットの風


富士山静岡空港
TAF RJNS 260841Z 2609/2712 27012KT 9999 FEW030
TEMPO 2700/2706 26020G32KT
日本時間26日18時-27日21時:270度から12ノットの風
但し、一時、27日09-15時:260度から20ノット、突風32ノット


那覇空港
TAF ROAH 260849Z 2609/2712 35018KT 9999 FEW030 SCT040
TEMPO 2609/2613 34020G30KT
日本時間26日18時-27日21時:350度から18ノットの風
但し、26日18-22時:一時、340度から20ノット、突風30ノット


マウイのカフルイ空港
TAF AMD PHOG 261412Z 2614/2712 14012KT P6SM VCSH SCT025 BKN050
ハワイ時間26日04時-27日02時:140度から12ノットの風


サイパン空港
TAF PGSN 261124Z 2612/2712 09011KT P6SM VCSH SCT020 SCT070
マリアナ時間26日22時-27日22時:090度から11ノットの風

コメント
この記事をはてなブックマークに追加

12/25-12/26の航空気象通報(国内、海外)

2010年12月25日 21時54分40秒 | TAF
羽田空港
TAF RJTT 250840Z 2509/2612 23018KT 9999 FEW030
TEMPO 2509/2512 23020G30KT
BECMG 2518/2521 23008KT
BECMG 2603/2606 21018KT
日本時間25日18時-26日03時:230度から18ノットの風
但し、25日18-21時の間:一時、230度から20ノット、突風30ノット
26日03-06時:風が変化
06-12時:230度から8ノットの風
12-15時:風が変化
15-21時:210度から18ノットの風


富士山静岡空港
TAF RJNS 250842Z 2509/2612 26028KT 9999 FEW030
TEMPO 2509/2518 26032G42KT
TEMPO 2518/2603 26022G34KT
BECMG 2603/2606 26016KT
日本時間25日18時-25日12時:260度から28ノットの風
但し、25日18時-26日03時:260度から32ノット、突風42ノット
但し、26日03-12時:260度から22ノット、突風34ノット
12-15時:風が変化
15-21時:260度から16ノットの風


那覇空港
TAF ROAH 250843Z 2509/2612 03012KT 9999 -RA FEW020 BKN045
TEMPO 2518/2524 4000 SHRA
日本時間25日18時-26日21時:030度から12ノットの風


マウイのカフルイ空港
TAF PHOG 251120Z 2512/2612 12005KT P6SM SCT025
TEMPO 2512/2514 BKN020
FM252000 20010KT P6SM FEW025 SCT050
ハワイ時間25日02-10時:120度から5ノットの風
10時-26日02時:200度から10ノットの風

但し、25日02-04時の間:一時、

サイパン空港
TAF PGSN 251120Z 2512/2612 08007KT P6SM FEW020
FM260000 08012KT P6SM VCSH FEW020 SCT060
マリアナ時間25日22時-26日10時:080度から7ノットの風
10-22時:080度から12ノットの風

コメント
この記事をはてなブックマークに追加